Time;durP1;ratioP1;P1;durP2;ratioP2;P2;SDS_P1;SDS_P2;PMS_P1;PMS_P2;Temp;Humidity;BMP_temperature;BMP_pressure;BME280_temperature;BME280_humidity;BME280_pressure;Samples;Min_cycle;Max_cycle;Signal;HPM_P1;HPM_P2
2023/07/01 00:01:51;;;;;;;5.50;2.10;;;18.20;98.60;;;;;;5029715;28;20061;-71
2023/07/01 00:04:17;;;;;;;1.70;1.00;;;18.00;99.80;;;;;;5030292;28;20111;-71
2023/07/01 00:06:43;;;;;;;3.05;1.40;;;18.10;99.80;;;;;;5029666;28;20071;-71
2023/07/01 00:09:10;;;;;;;2.80;1.17;;;18.00;99.90;;;;;;5030284;28;20179;-71
2023/07/01 00:11:37;;;;;;;5.57;1.35;;;17.70;99.90;;;;;;5029449;28;20108;-71
2023/07/01 00:14:04;;;;;;;3.58;1.77;;;17.60;99.90;;;;;;5028788;28;20102;-71
2023/07/01 00:16:30;;;;;;;5.00;1.77;;;17.60;99.90;;;;;;5029507;28;20053;-71
2023/07/01 00:18:55;;;;;;;2.15;1.20;;;17.30;99.90;;;;;;5030092;28;20064;-71
2023/07/01 00:21:21;;;;;;;2.85;1.17;;;17.10;99.90;;;;;;5029305;28;20033;-71
2023/07/01 00:23:47;;;;;;;2.55;1.33;;;17.10;99.90;;;;;;5033786;28;20040;-71
2023/07/01 00:26:12;;;;;;;5.15;1.52;;;17.20;99.90;;;;;;5033309;28;20041;-70
2023/07/01 00:28:38;;;;;;;4.57;1.58;;;17.20;99.90;;;;;;5033738;28;20040;-71
2023/07/01 00:31:04;;;;;;;1.40;0.90;;;17.20;99.90;;;;;;5033196;28;20091;-70
2023/07/01 00:33:29;;;;;;;3.67;1.67;;;17.30;99.90;;;;;;5032117;28;20037;-71
2023/07/01 00:35:55;;;;;;;3.40;1.40;;;17.30;99.90;;;;;;5032991;28;20037;-70
2023/07/01 00:38:21;;;;;;;3.00;1.55;;;17.30;99.90;;;;;;5033542;28;20037;-71
2023/07/01 00:40:47;;;;;;;4.47;1.60;;;17.30;99.90;;;;;;5028300;28;20083;-71
2023/07/01 00:43:14;;;;;;;2.67;1.33;;;17.20;99.90;;;;;;5032241;28;20064;-71
2023/07/01 00:45:39;;;;;;;2.67;1.17;;;17.20;99.90;;;;;;5028816;28;20042;-72
2023/07/01 00:48:05;;;;;;;3.83;1.60;;;17.00;99.90;;;;;;5029268;28;20029;-71
2023/07/01 00:50:31;;;;;;;3.83;2.10;;;17.00;99.90;;;;;;5031739;28;20036;-71
2023/07/01 00:52:57;;;;;;;3.58;1.30;;;17.10;99.90;;;;;;5004278;28;20066;-71
2023/07/01 00:55:23;;;;;;;6.32;1.65;;;17.10;99.90;;;;;;5031367;28;20128;-71
2023/07/01 00:57:49;;;;;;;2.50;1.40;;;17.10;99.90;;;;;;5033520;28;20104;-71
2023/07/01 01:00:15;;;;;;;3.38;1.08;;;17.10;99.90;;;;;;5032415;28;20026;-71
2023/07/01 01:03:21;;;;;;;2.40;1.42;;;17.20;99.90;;;;;;5032666;28;20741;-72
2023/07/01 01:06:15;;;;;;;4.18;1.70;;;17.00;99.90;;;;;;5020059;28;20076;-72
2023/07/01 01:09:01;;;;;;;1.98;1.10;;;16.90;99.90;;;;;;5028663;28;20037;-72
2023/07/01 01:11:32;;;;;;;4.95;1.73;;;16.70;99.90;;;;;;5029556;28;20053;-72
2023/07/01 01:14:03;;;;;;;2.85;1.67;;;16.80;99.90;;;;;;5031528;28;20033;-72
2023/07/01 01:16:30;;;;;;;3.75;1.75;;;16.80;99.90;;;;;;5030185;28;20033;-72
2023/07/01 01:18:58;;;;;;;4.25;1.77;;;16.80;99.90;;;;;;5032652;28;20033;-71
2023/07/01 01:21:25;;;;;;;4.97;2.03;;;16.70;99.90;;;;;;5029568;28;20108;-71
2023/07/01 01:24:03;;;;;;;3.58;1.30;;;16.60;99.90;;;;;;5032373;28;20494;-69
2023/07/01 01:26:39;;;;;;;2.22;1.20;;;16.50;99.90;;;;;;5030130;28;20037;-70
2023/07/01 01:29:06;;;;;;;3.25;1.45;;;16.50;99.90;;;;;;5031189;28;20033;-69
2023/07/01 01:31:33;;;;;;;3.08;1.45;;;16.50;99.90;;;;;;5023571;28;20033;-70
2023/07/01 01:33:59;;;;;;;3.17;1.60;;;16.40;99.90;;;;;;5030081;28;20378;-70
2023/07/01 01:36:46;;;;;;;3.67;1.73;;;16.40;99.90;;;;;;5044308;22;20030;-67
2023/07/01 01:39:14;;;;;;;7.28;1.98;;;16.40;99.90;;;;;;4990229;28;20493;-67
2023/07/01 01:41:46;;;;;;;4.10;1.88;;;16.30;99.90;;;;;;4992386;28;20438;-68
2023/07/01 01:44:25;;;;;;;5.07;1.40;;;16.30;99.90;;;;;;5007507;28;20081;-67
2023/07/01 01:46:51;;;;;;;4.68;2.03;;;16.20;99.90;;;;;;5002706;28;20522;-67
2023/07/01 01:49:19;;;;;;;2.63;1.42;;;16.20;99.90;;;;;;4971858;28;20046;-67
2023/07/01 01:51:45;;;;;;;5.30;1.58;;;16.20;99.90;;;;;;4972091;28;20030;-68
2023/07/01 01:54:13;;;;;;;3.63;1.73;;;16.20;99.90;;;;;;4971822;28;20035;-67
2023/07/01 01:56:39;;;;;;;6.18;1.70;;;16.30;99.90;;;;;;4965769;28;20518;-67
2023/07/01 01:59:05;;;;;;;4.82;1.77;;;16.20;99.90;;;;;;4960317;28;20049;-67
2023/07/01 02:01:33;;;;;;;5.45;1.95;;;16.10;99.90;;;;;;4960364;28;20035;-68
2023/07/01 02:03:59;;;;;;;2.70;1.38;;;16.10;99.90;;;;;;4976209;28;20511;-67
2023/07/01 02:06:24;;;;;;;3.65;1.77;;;16.10;99.90;;;;;;4962924;28;20058;-68
2023/07/01 02:08:50;;;;;;;9.23;2.03;;;16.00;99.90;;;;;;4962672;28;20073;-68
2023/07/01 02:11:16;;;;;;;3.13;1.80;;;16.00;99.90;;;;;;4962553;28;20419;-68
2023/07/01 02:13:42;;;;;;;4.80;1.98;;;15.90;99.90;;;;;;4980900;28;20039;-68
2023/07/01 02:16:07;;;;;;;6.32;1.98;;;15.90;99.90;;;;;;4972623;28;20503;-67
2023/07/01 02:18:33;;;;;;;2.58;1.45;;;15.90;99.90;;;;;;4980388;28;20070;-67
2023/07/01 02:20:59;;;;;;;6.00;1.42;;;15.80;99.90;;;;;;4972372;28;20030;-68
2023/07/01 02:23:24;;;;;;;2.42;1.50;;;15.80;99.90;;;;;;4971244;28;20038;-67
2023/07/01 02:25:50;;;;;;;2.40;1.50;;;15.80;99.90;;;;;;4971667;28;20126;-67
2023/07/01 02:28:16;;;;;;;8.55;1.58;;;15.70;99.90;;;;;;4972401;28;20034;-67
2023/07/01 02:30:42;;;;;;;3.40;1.45;;;15.60;99.90;;;;;;4972558;28;20031;-67
2023/07/01 02:33:07;;;;;;;13.18;2.00;;;15.50;99.90;;;;;;4972386;28;20113;-67
2023/07/01 02:35:33;;;;;;;4.25;1.70;;;15.50;99.90;;;;;;4972495;28;20042;-68
2023/07/01 02:37:59;;;;;;;3.92;1.95;;;15.50;99.90;;;;;;4970811;28;20086;-68
2023/07/01 02:40:24;;;;;;;3.10;1.50;;;15.40;99.90;;;;;;4972203;28;20030;-68
2023/07/01 02:42:50;;;;;;;2.33;1.50;;;15.30;99.90;;;;;;4972176;28;20030;-68
2023/07/01 02:45:16;;;;;;;5.20;1.70;;;15.30;99.90;;;;;;4972101;28;20528;-67
2023/07/01 02:47:42;;;;;;;2.70;1.48;;;15.40;99.90;;;;;;4972128;28;20131;-67
2023/07/01 02:50:08;;;;;;;3.65;1.83;;;15.40;99.90;;;;;;4972021;28;20121;-68
2023/07/01 02:52:34;;;;;;;6.82;1.92;;;15.40;99.90;;;;;;4955407;28;20125;-68
2023/07/01 02:54:59;;;;;;;4.07;1.60;;;15.30;99.90;;;;;;4972230;28;20452;-68
2023/07/01 02:57:25;;;;;;;4.03;1.70;;;15.30;99.90;;;;;;4971920;28;20045;-68
2023/07/01 02:59:51;;;;;;;8.73;1.92;;;15.40;99.90;;;;;;4971605;28;20106;-68
2023/07/01 03:02:17;;;;;;;5.68;2.33;;;15.30;99.90;;;;;;4969985;28;20419;-68
2023/07/01 03:04:42;;;;;;;5.20;2.22;;;15.20;99.90;;;;;;4970987;28;20049;-68
2023/07/01 03:07:08;;;;;;;3.50;1.88;;;15.20;99.90;;;;;;4967047;28;20043;-66
2023/07/01 03:09:34;;;;;;;5.32;1.98;;;15.20;99.90;;;;;;4970680;28;20038;-67
2023/07/01 03:12:00;;;;;;;4.82;2.20;;;15.10;99.90;;;;;;4972055;28;20038;-68
2023/07/01 03:14:26;;;;;;;6.25;2.97;;;15.10;99.90;;;;;;4971387;28;20066;-67
2023/07/01 03:16:52;;;;;;;2.45;1.63;;;15.10;99.90;;;;;;4971988;28;20085;-68
2023/07/01 03:19:18;;;;;;;4.68;2.40;;;15.10;99.90;;;;;;4970247;28;20031;-67
2023/07/01 03:21:45;;;;;;;5.75;2.60;;;15.10;99.90;;;;;;4971560;28;20391;-67
2023/07/01 03:24:11;;;;;;;7.53;2.15;;;15.10;99.90;;;;;;4971297;28;20494;-67
2023/07/01 03:26:37;;;;;;;4.25;2.40;;;15.10;99.90;;;;;;4971880;28;20033;-67
2023/07/01 03:29:03;;;;;;;3.67;1.98;;;15.10;99.90;;;;;;4971169;28;20058;-67
2023/07/01 03:31:28;;;;;;;7.53;2.78;;;15.00;99.90;;;;;;4971516;28;20030;-67
2023/07/01 03:33:54;;;;;;;4.85;2.97;;;15.10;99.90;;;;;;4971169;28;20057;-68
2023/07/01 03:36:20;;;;;;;6.57;2.05;;;15.00;99.90;;;;;;4971645;28;20149;-68
2023/07/01 03:38:46;;;;;;;6.47;2.30;;;15.00;99.90;;;;;;4971129;28;20035;-68
2023/07/01 03:41:11;;;;;;;4.43;2.13;;;14.90;99.90;;;;;;4971514;28;20027;-68
2023/07/01 03:43:37;;;;;;;4.28;2.13;;;14.90;99.90;;;;;;4971017;28;20033;-68
2023/07/01 03:46:03;;;;;;;6.80;2.83;;;14.80;99.90;;;;;;4971923;28;20097;-68
2023/07/01 03:48:29;;;;;;;3.55;2.17;;;14.90;99.90;;;;;;4969837;28;20057;-68
2023/07/01 03:50:55;;;;;;;4.43;2.50;;;14.90;99.90;;;;;;4971367;28;20534;-67
2023/07/01 03:53:20;;;;;;;5.05;2.47;;;14.90;99.90;;;;;;4969710;28;20045;-68
2023/07/01 03:55:47;;;;;;;6.05;2.78;;;14.90;99.90;;;;;;4970318;28;20027;-68
2023/07/01 03:58:21;;;;;;;4.07;2.08;;;15.00;99.90;;;;;;4974014;28;20380;-68
2023/07/01 04:00:48;;;;;;;6.10;2.78;;;15.00;99.90;;;;;;4974292;28;20027;-67
2023/07/01 04:03:14;;;;;;;8.27;2.53;;;15.00;99.90;;;;;;4973679;28;20105;-68
2023/07/01 04:05:40;;;;;;;6.35;2.63;;;15.00;99.90;;;;;;4975498;28;20471;-67
2023/07/01 04:08:05;;;;;;;5.47;2.55;;;15.00;99.90;;;;;;4973410;28;20042;-68
2023/07/01 04:10:31;;;;;;;5.43;2.42;;;15.00;99.90;;;;;;4973942;28;20027;-68
2023/07/01 04:12:58;;;;;;;5.05;2.72;;;15.00;99.90;;;;;;4974875;28;20038;-68
2023/07/01 04:15:24;;;;;;;5.45;2.58;;;15.00;99.90;;;;;;4974928;28;20033;-68
2023/07/01 04:17:51;;;;;;;5.47;2.63;;;15.00;99.90;;;;;;4973666;28;20039;-68
2023/07/01 04:20:19;;;;;;;5.10;2.67;;;15.00;99.90;;;;;;4973832;28;20027;-68
2023/07/01 04:22:46;;;;;;;6.10;2.90;;;15.00;99.90;;;;;;4973603;28;20566;-68
2023/07/01 04:25:12;;;;;;;4.32;2.22;;;15.10;99.90;;;;;;4973430;28;20034;-68
2023/07/01 04:27:38;;;;;;;5.75;2.50;;;15.10;99.90;;;;;;4973278;28;20030;-67
2023/07/01 04:30:08;;;;;;;5.35;2.63;;;15.10;99.90;;;;;;4974578;28;20030;-67
2023/07/01 04:32:34;;;;;;;3.30;2.10;;;15.20;99.90;;;;;;4973367;28;20034;-68
2023/07/01 04:35:01;;;;;;;6.68;2.00;;;15.30;99.90;;;;;;4973429;28;20026;-69
2023/07/01 04:37:26;;;;;;;3.95;2.00;;;15.40;99.90;;;;;;4956759;28;20129;-68
2023/07/01 04:39:52;;;;;;;7.10;3.03;;;15.50;99.90;;;;;;4972938;28;20506;-67
2023/07/01 04:42:18;;;;;;;4.60;2.38;;;15.60;99.90;;;;;;4974407;28;20118;-68
2023/07/01 04:44:44;;;;;;;4.43;2.15;;;15.70;99.90;;;;;;4974393;28;20042;-68
2023/07/01 04:47:11;;;;;;;5.32;2.28;;;15.80;99.90;;;;;;4957342;28;20585;-68
2023/07/01 04:49:36;;;;;;;6.05;2.58;;;15.80;99.90;;;;;;4973960;28;20034;-68
2023/07/01 04:52:02;;;;;;;6.40;2.15;;;16.00;99.90;;;;;;4974418;28;20053;-67
2023/07/01 04:54:28;;;;;;;6.45;2.50;;;16.00;99.90;;;;;;4972821;28;20169;-66
2023/07/01 04:56:54;;;;;;;6.22;2.63;;;16.10;99.90;;;;;;4974216;28;20113;-57
2023/07/01 04:59:19;;;;;;;4.20;2.55;;;16.30;99.90;;;;;;4972497;28;20038;-55
2023/07/01 05:01:45;;;;;;;5.13;2.33;;;16.40;99.90;;;;;;4974194;28;20042;-58
2023/07/01 05:04:11;;;;;;;7.20;2.25;;;16.50;99.90;;;;;;4973576;28;20454;-56
2023/07/01 05:06:37;;;;;;;4.38;1.92;;;16.60;99.90;;;;;;4972613;28;20035;-54
2023/07/01 05:09:04;;;;;;;3.53;2.08;;;16.70;99.90;;;;;;4973522;28;20045;-55
2023/07/01 05:11:30;;;;;;;4.38;1.90;;;16.80;99.90;;;;;;4966342;28;20058;-55
2023/07/01 05:13:56;;;;;;;2.28;1.40;;;16.90;99.90;;;;;;4973157;28;20022;-55
2023/07/01 05:16:22;;;;;;;4.85;1.98;;;17.00;99.90;;;;;;4973644;28;20046;-55
2023/07/01 05:18:48;;;;;;;4.22;1.90;;;17.10;99.90;;;;;;4976056;28;20481;-53
2023/07/01 05:21:13;;;;;;;4.95;1.80;;;17.10;99.90;;;;;;4980106;28;20491;-52
2023/07/01 05:23:39;;;;;;;3.35;1.50;;;17.20;99.90;;;;;;4973282;28;20037;-52
2023/07/01 05:26:05;;;;;;;4.60;2.10;;;17.20;99.90;;;;;;4973453;28;20046;-55
2023/07/01 05:28:31;;;;;;;4.05;1.92;;;17.30;99.90;;;;;;4973341;28;20048;-54
2023/07/01 05:30:56;;;;;;;2.80;1.45;;;17.40;99.90;;;;;;4972997;28;20031;-54
2023/07/01 05:33:22;;;;;;;3.58;1.65;;;17.50;99.90;;;;;;4973330;28;20501;-53
2023/07/01 05:35:48;;;;;;;3.75;1.48;;;17.60;99.90;;;;;;4973617;28;20492;-55
2023/07/01 05:38:13;;;;;;;3.13;1.33;;;17.70;99.90;;;;;;4973064;28;20522;-54
2023/07/01 05:40:39;;;;;;;5.38;1.40;;;17.90;99.90;;;;;;4973024;28;20041;-55
2023/07/01 05:43:05;;;;;;;5.32;1.55;;;18.00;99.90;;;;;;4973140;28;20035;-55
2023/07/01 05:45:31;;;;;;;2.08;1.02;;;18.10;99.90;;;;;;4973220;28;20022;-54
2023/07/01 05:47:57;;;;;;;3.95;1.33;;;18.10;99.90;;;;;;4973001;28;20085;-53
2023/07/01 05:50:23;;;;;;;2.25;1.13;;;18.30;99.90;;;;;;4971968;28;20030;-54
2023/07/01 05:52:49;;;;;;;1.73;1.08;;;18.40;99.90;;;;;;4972898;28;20026;-53
2023/07/01 05:55:15;;;;;;;1.67;0.82;;;18.40;99.90;;;;;;4972184;28;20063;-55
2023/07/01 05:57:40;;;;;;;10.18;1.63;;;18.30;99.90;;;;;;4972930;28;20453;-52
2023/07/01 06:00:09;;;;;;;1.65;0.95;;;18.50;99.90;;;;;;4972718;28;20034;-54
2023/07/01 06:02:35;;;;;;;3.90;2.40;;;18.60;99.90;;;;;;4968011;28;20755;-56
2023/07/01 06:05:01;;;;;;;1.83;0.95;;;18.60;99.90;;;;;;4972916;28;20054;-59
2023/07/01 06:07:26;;;;;;;1.60;0.80;;;18.50;99.90;;;;;;4975848;28;20026;-59
2023/07/01 06:09:52;;;;;;;1.92;0.98;;;18.50;99.90;;;;;;4972233;28;20399;-56
2023/07/01 06:12:18;;;;;;;2.67;1.20;;;18.50;99.90;;;;;;4972507;28;20105;-58
2023/07/01 06:14:43;;;;;;;3.90;1.70;;;18.40;99.90;;;;;;4973126;28;20474;-60
2023/07/01 06:17:09;;;;;;;3.33;1.58;;;18.50;99.90;;;;;;4972973;28;20031;-67
2023/07/01 06:19:35;;;;;;;3.50;0.98;;;18.60;99.90;;;;;;4953832;28;20422;-66
2023/07/01 06:22:01;;;;;;;2.08;1.10;;;18.70;99.90;;;;;;4972127;28;20038;-66
2023/07/01 06:24:26;;;;;;;2.85;1.33;;;18.70;99.90;;;;;;4972632;28;20041;-67
2023/07/01 06:26:52;;;;;;;1.70;0.93;;;18.80;99.90;;;;;;4970382;28;20042;-67
2023/07/01 06:29:18;;;;;;;2.08;1.08;;;18.80;99.90;;;;;;4971810;28;20050;-66
2023/07/01 06:31:43;;;;;;;2.30;1.30;;;18.80;99.90;;;;;;4971174;28;20030;-67
2023/07/01 06:34:17;;;;;;;2.03;1.35;;;18.70;99.90;;;;;;4972164;28;20109;-66
2023/07/01 06:36:43;;;;;;;3.75;1.50;;;18.80;99.90;;;;;;4972062;28;20121;-66
2023/07/01 06:39:10;;;;;;;3.28;1.10;;;18.90;99.90;;;;;;4954850;28;20117;-66
2023/07/01 06:41:35;;;;;;;8.68;1.38;;;19.00;99.90;;;;;;4972171;28;20030;-67
2023/07/01 06:44:02;;;;;;;3.83;1.20;;;19.20;99.90;;;;;;4968939;28;20030;-66
2023/07/01 06:46:28;;;;;;;4.13;1.10;;;19.10;99.90;;;;;;4968301;28;20057;-66
2023/07/01 06:48:54;;;;;;;1.75;0.85;;;19.20;99.90;;;;;;4985155;28;20066;-67
2023/07/01 06:51:20;;;;;;;3.20;1.10;;;19.20;99.90;;;;;;4972141;28;20035;-67
2023/07/01 06:53:46;;;;;;;1.90;1.15;;;19.20;99.90;;;;;;4971859;28;20093;-66
2023/07/01 06:56:11;;;;;;;2.10;1.02;;;19.30;99.90;;;;;;4972363;28;20035;-66
2023/07/01 06:58:40;;;;;;;2.35;0.98;;;19.40;99.90;;;;;;4970474;28;20038;-66
2023/07/01 07:01:06;;;;;;;3.22;1.45;;;19.40;99.90;;;;;;4970571;28;20506;-66
2023/07/01 07:03:33;;;;;;;2.60;1.30;;;19.50;99.90;;;;;;4954351;28;20443;-67
2023/07/01 07:06:00;;;;;;;3.22;1.00;;;19.40;99.90;;;;;;4970571;28;20566;-55
2023/07/01 07:08:26;;;;;;;5.30;1.58;;;19.50;99.90;;;;;;4971592;28;20411;-50
2023/07/01 07:10:52;;;;;;;1.75;0.77;;;19.60;99.90;;;;;;4971594;28;20049;-54
2023/07/01 07:13:18;;;;;;;2.45;1.17;;;19.60;99.90;;;;;;4979647;28;20479;-52
2023/07/01 07:15:44;;;;;;;2.53;1.13;;;19.80;99.90;;;;;;4971751;28;20062;-50
2023/07/01 07:18:10;;;;;;;1.70;0.90;;;19.50;99.90;;;;;;4973359;28;20022;-54
2023/07/01 07:20:38;;;;;;;4.05;1.20;;;19.60;99.90;;;;;;4971445;28;20766;-55
2023/07/01 07:23:06;;;;;;;3.95;1.20;;;19.60;99.90;;;;;;4970228;28;20042;-53
2023/07/01 07:25:35;;;;;;;1.65;1.15;;;19.50;99.90;;;;;;4973941;28;20058;-54
2023/07/01 07:28:03;;;;;;;22.45;1.63;;;19.60;99.90;;;;;;4982836;28;20031;-54
2023/07/01 07:30:29;;;;;;;2.50;0.90;;;19.70;99.90;;;;;;4980324;28;20444;-53
2023/07/01 07:32:55;;;;;;;2.55;1.00;;;19.80;99.90;;;;;;4949778;28;20377;-64
2023/07/01 07:35:21;;;;;;;5.18;1.52;;;19.70;99.90;;;;;;4970017;28;20045;-64
2023/07/01 07:37:47;;;;;;;2.72;1.00;;;19.80;99.90;;;;;;4970986;28;20396;-64
2023/07/01 07:40:14;;;;;;;2.88;1.27;;;19.80;99.90;;;;;;4970228;28;20430;-63
2023/07/01 07:42:45;;;;;;;4.05;0.93;;;20.00;99.90;;;;;;4969676;28;20043;-65
2023/07/01 07:45:12;;;;;;;2.75;1.10;;;20.10;99.90;;;;;;5001774;23;20080;-66
2023/07/01 07:47:38;;;;;;;4.65;0.90;;;20.00;99.90;;;;;;5045313;28;20033;-67
2023/07/01 07:50:04;;;;;;;5.78;1.15;;;20.10;99.90;;;;;;5029448;28;20052;-66
2023/07/01 07:52:30;;;;;;;2.10;0.73;;;20.10;99.90;;;;;;5045429;28;20097;-66
2023/07/01 07:54:55;;;;;;;1.88;1.00;;;20.20;99.90;;;;;;5028744;28;20462;-67
2023/07/01 07:57:21;;;;;;;1.05;0.75;;;20.30;99.00;;;;;;5029891;28;20044;-67
2023/07/01 07:59:47;;;;;;;1.55;0.80;;;20.60;99.60;;;;;;5029665;28;20068;-67
2023/07/01 08:02:13;;;;;;;3.55;1.02;;;20.60;97.90;;;;;;5029468;28;20564;-67
2023/07/01 08:04:38;;;;;;;2.85;0.80;;;20.60;97.90;;;;;;5029808;28;20061;-67
2023/07/01 08:07:05;;;;;;;2.85;1.67;;;20.50;98.20;;;;;;5029670;28;20404;-67
2023/07/01 08:09:31;;;;;;;1.50;0.82;;;20.50;97.90;;;;;;5029811;28;20029;-67
2023/07/01 08:11:59;;;;;;;2.40;1.00;;;20.50;98.00;;;;;;5024373;28;20548;-67
2023/07/01 08:14:26;;;;;;;1.63;0.88;;;20.40;98.10;;;;;;5027907;28;20117;-67
2023/07/01 08:16:54;;;;;;;7.22;1.33;;;20.50;98.00;;;;;;5029810;28;20124;-67
2023/07/01 08:19:19;;;;;;;5.68;0.80;;;20.60;98.00;;;;;;5014224;28;20033;-67
2023/07/01 08:21:45;;;;;;;1.30;0.98;;;20.70;96.90;;;;;;5029215;28;20028;-66
2023/07/01 08:24:11;;;;;;;2.45;0.95;;;21.00;96.40;;;;;;5029955;28;20033;-65
2023/07/01 08:26:37;;;;;;;1.70;1.00;;;20.90;96.40;;;;;;5029232;28;20053;-67
2023/07/01 08:29:06;;;;;;;1.40;0.80;;;21.00;96.40;;;;;;5029977;28;20528;-67
2023/07/01 08:31:32;;;;;;;3.70;1.20;;;20.90;96.60;;;;;;5029490;28;20034;-67
2023/07/01 08:33:58;;;;;;;2.97;1.13;;;21.10;96.20;;;;;;5028884;28;20025;-67
2023/07/01 08:36:25;;;;;;;1.95;0.90;;;21.10;95.70;;;;;;5011421;28;20036;-67
2023/07/01 08:38:51;;;;;;;3.35;1.20;;;21.00;96.00;;;;;;5018126;28;20034;-67
2023/07/01 08:41:18;;;;;;;2.17;0.90;;;20.90;95.80;;;;;;5029141;28;20083;-67
2023/07/01 08:43:47;;;;;;;2.50;0.80;;;21.00;95.60;;;;;;5024167;28;20142;-65
2023/07/01 08:46:15;;;;;;;3.80;1.50;;;21.10;95.60;;;;;;5031525;28;20037;-67
2023/07/01 08:48:44;;;;;;;2.92;0.90;;;21.10;95.70;;;;;;5025126;28;20065;-66
2023/07/01 08:51:25;;;;;;;2.42;1.15;;;21.50;95.60;;;;;;5031647;28;20070;-67
2023/07/01 08:53:52;;;;;;;2.42;1.20;;;21.60;95.10;;;;;;5026272;28;20095;-66
2023/07/01 08:56:22;;;;;;;1.23;0.68;;;21.80;94.80;;;;;;5031388;28;20112;-66
2023/07/01 08:58:49;;;;;;;6.88;1.20;;;21.70;95.30;;;;;;5031835;28;20418;-66
2023/07/01 09:01:16;;;;;;;3.88;0.95;;;21.60;94.90;;;;;;5031095;28;20064;-67
2023/07/01 09:03:42;;;;;;;3.10;1.13;;;21.70;94.90;;;;;;5032992;28;20504;-66
2023/07/01 09:06:08;;;;;;;3.85;1.25;;;21.90;94.70;;;;;;5031672;28;20124;-67
2023/07/01 09:08:38;;;;;;;2.92;1.15;;;21.50;95.20;;;;;;5031023;28;20473;-66
2023/07/01 09:11:14;;;;;;;1.20;1.00;;;21.60;95.60;;;;;;5031080;28;20487;-67
2023/07/01 09:13:41;;;;;;;0.82;0.57;;;21.50;95.20;;;;;;5025636;28;20120;-66
2023/07/01 09:16:08;;;;;;;1.63;0.95;;;21.40;95.60;;;;;;5032894;28;20548;-65
2023/07/01 09:18:35;;;;;;;2.15;0.90;;;21.60;95.10;;;;;;5031167;28;20504;-67
2023/07/01 09:21:02;;;;;;;2.15;0.75;;;21.80;95.00;;;;;;5031362;28;20052;-67
2023/07/01 09:23:34;;;;;;;5.47;1.27;;;21.80;95.00;;;;;;5032085;28;20064;-66
2023/07/01 09:26:10;;;;;;;3.58;1.27;;;21.80;94.60;;;;;;5038147;28;20029;-66
2023/07/01 09:28:37;;;;;;;1.30;0.57;;;21.80;94.90;;;;;;5027102;28;20087;-66
2023/07/01 09:31:10;;;;;;;1.67;0.88;;;21.90;95.10;;;;;;5031113;28;20830;-66
2023/07/01 09:33:37;;;;;;;2.05;0.80;;;22.10;95.00;;;;;;5032084;28;20152;-66
2023/07/01 09:36:05;;;;;;;2.35;0.82;;;22.00;94.80;;;;;;5030867;28;20033;-66
2023/07/01 09:38:52;;;;;;;2.88;0.90;;;22.10;94.60;;;;;;5031695;28;20032;-66
2023/07/01 09:41:24;;;;;;;1.63;0.77;;;22.20;94.20;;;;;;5030331;28;20037;-66
2023/07/01 09:43:55;;;;;;;2.67;0.88;;;22.30;94.00;;;;;;5033440;28;20034;-66
2023/07/01 09:46:22;;;;;;;1.75;0.85;;;22.40;94.20;;;;;;5030578;28;20116;-67
2023/07/01 09:48:55;;;;;;;1.60;0.45;;;22.00;93.40;;;;;;5030835;28;20044;-65
2023/07/01 09:51:27;;;;;;;2.20;0.80;;;22.10;93.60;;;;;;5030361;28;20405;-69
2023/07/01 09:53:53;;;;;;;1.58;0.80;;;22.10;93.40;;;;;;5008540;28;20116;-68
2023/07/01 09:56:20;;;;;;;1.98;0.80;;;22.00;94.00;;;;;;5029582;28;20151;-65
2023/07/01 09:58:47;;;;;;;1.02;0.70;;;22.00;93.90;;;;;;5031969;28;20444;-67
2023/07/01 10:01:16;;;;;;;1.60;0.80;;;22.10;93.80;;;;;;5029696;28;20064;-68
2023/07/01 10:03:43;;;;;;;2.05;0.93;;;22.00;94.10;;;;;;5031555;28;20037;-68
2023/07/01 10:06:10;;;;;;;3.15;0.85;;;21.80;94.40;;;;;;5031693;28;20037;-67
2023/07/01 10:08:37;;;;;;;1.30;0.80;;;21.60;94.70;;;;;;5003550;28;20057;-67
2023/07/01 10:11:19;;;;;;;1.23;0.60;;;21.50;94.90;;;;;;5018324;28;20029;-67
2023/07/01 10:13:52;;;;;;;1.27;0.60;;;21.60;94.90;;;;;;5023878;28;20034;-67
2023/07/01 10:16:19;;;;;;;0.77;0.57;;;21.60;95.20;;;;;;5030203;28;20044;-67
2023/07/01 10:18:45;;;;;;;2.88;1.20;;;21.60;95.50;;;;;;5023884;28;20048;-67
2023/07/01 10:21:23;;;;;;;1.42;0.63;;;21.50;95.90;;;;;;5030098;28;20029;-67
2023/07/01 10:23:50;;;;;;;2.22;0.70;;;21.40;96.40;;;;;;5040544;28;20045;-66
2023/07/01 10:26:53;;;;;;;0.98;0.45;;;21.30;96.80;;;;;;5031151;28;20041;-66
2023/07/01 10:29:31;;;;;;;3.10;0.90;;;21.30;97.20;;;;;;5029398;28;20492;-67
2023/07/01 10:32:09;;;;;;;2.28;1.02;;;21.00;97.80;;;;;;5043066;28;20029;-67
2023/07/01 10:34:53;;;;;;;1.58;0.60;;;21.00;98.20;;;;;;5023383;28;20021;-67
2023/07/01 10:37:27;;;;;;;1.55;0.90;;;21.00;98.40;;;;;;5030764;28;20044;-67
2023/07/01 10:39:54;;;;;;;3.03;0.70;;;21.20;98.40;;;;;;5029789;28;20391;-67
2023/07/01 10:42:32;;;;;;;1.85;0.95;;;21.20;98.30;;;;;;5030891;28;20481;-66
2023/07/01 10:45:13;;;;;;;2.67;0.90;;;21.30;98.40;;;;;;5029679;28;20037;-67
2023/07/01 10:47:44;;;;;;;;;;;21.20;98.30;;;;;;5030757;28;20035;-66
2023/07/01 10:50:14;;;;;;;;;;;21.10;98.90;;;;;;5014232;28;19966;-65
2023/07/01 10:52:55;;;;;;;1.20;0.67;;;21.10;99.40;;;;;;5030487;28;20004;-67
2023/07/01 10:55:46;;;;;;;1.65;0.70;;;21.10;99.60;;;;;;5031235;28;20037;-67
2023/07/01 10:58:25;;;;;;;2.15;1.10;;;21.20;99.90;;;;;;5029208;28;20037;-68
2023/07/01 11:00:53;;;;;;;2.75;1.00;;;21.20;99.90;;;;;;5030743;28;20568;-67
2023/07/01 11:03:50;;;;;;;3.05;0.85;;;21.20;99.90;;;;;;5028852;28;20144;-67
2023/07/01 11:06:16;;;;;;;3.33;0.73;;;21.10;99.90;;;;;;5030345;28;20052;-67
2023/07/01 11:08:47;;;;;;;2.22;0.90;;;20.90;99.90;;;;;;5023652;28;20108;-67
2023/07/01 11:11:23;;;;;;;2.15;1.25;;;20.90;99.90;;;;;;5029981;28;20114;-67
2023/07/01 11:14:04;;;;;;;1.92;0.70;;;21.00;99.90;;;;;;5029258;28;20035;-67
2023/07/01 11:16:32;;;;;;;0.75;0.60;;;20.90;99.90;;;;;;5027231;28;20487;-67
2023/07/01 11:19:07;;;;;;;2.70;0.70;;;21.00;99.90;;;;;;5030257;28;20041;-66
2023/07/01 11:21:33;;;;;;;1.10;0.63;;;21.10;99.90;;;;;;5043374;28;20064;-66
2023/07/01 11:24:06;;;;;;;1.77;0.80;;;21.10;99.90;;;;;;5029148;28;20083;-67
2023/07/01 11:26:40;;;;;;;1.95;0.95;;;21.20;99.90;;;;;;5030129;28;20150;-67
2023/07/01 11:29:15;;;;;;;3.15;0.77;;;21.00;99.90;;;;;;5028991;28;20366;-67
2023/07/01 11:31:41;;;;;;;1.10;0.50;;;20.90;99.90;;;;;;5017691;28;20040;-67
2023/07/01 11:34:07;;;;;;;2.28;0.82;;;20.80;99.90;;;;;;5030457;28;20025;-67
2023/07/01 11:36:41;;;;;;;3.60;1.02;;;20.80;99.90;;;;;;5028408;28;20040;-67
2023/07/01 11:39:27;;;;;;;5.47;0.88;;;21.00;99.90;;;;;;5028956;28;20036;-66
2023/07/01 11:42:00;;;;;;;2.50;0.90;;;21.10;99.90;;;;;;5027716;28;20045;-67
2023/07/01 11:44:28;;;;;;;2.05;0.77;;;21.30;99.90;;;;;;5028851;28;20031;-67
2023/07/01 11:46:55;;;;;;;2.67;0.90;;;21.00;99.90;;;;;;5025065;28;20512;-67
2023/07/01 11:49:21;;;;;;;1.98;0.90;;;20.80;99.90;;;;;;5028621;28;20057;-66
2023/07/01 11:51:53;;;;;;;1.13;0.70;;;20.90;99.90;;;;;;5029730;28;20733;-67
2023/07/01 11:54:22;;;;;;;3.15;1.00;;;20.70;99.90;;;;;;5030078;28;20064;-66
2023/07/01 11:56:50;;;;;;;5.00;1.73;;;20.70;99.90;;;;;;5025857;28;20041;-66
2023/07/01 11:59:37;;;;;;;1.77;1.08;;;20.90;99.90;;;;;;5026458;28;20057;-66
2023/07/01 12:02:03;;;;;;;0.73;0.52;;;21.10;99.90;;;;;;5022455;28;20149;-66
2023/07/01 12:04:29;;;;;;;2.63;1.42;;;21.10;99.90;;;;;;5027763;28;20494;-66
2023/07/01 12:07:17;;;;;;;0.77;0.20;;;21.10;99.90;;;;;;5025220;28;20101;-66
2023/07/01 12:09:45;;;;;;;1.50;0.80;;;21.30;99.90;;;;;;5021693;28;20366;-64
2023/07/01 12:12:33;;;;;;;1.13;0.60;;;21.20;99.90;;;;;;5025456;28;20022;-65
2023/07/01 12:15:01;;;;;;;2.63;1.10;;;21.20;99.90;;;;;;5023221;28;20041;-65
2023/07/01 12:17:31;;;;;;;3.50;1.73;;;21.40;99.90;;;;;;5027957;28;20105;-65
2023/07/01 12:20:00;;;;;;;1.15;0.73;;;21.40;99.90;;;;;;5016005;28;20037;-65
2023/07/01 12:22:27;;;;;;;1.48;0.88;;;21.50;99.90;;;;;;5031291;28;20029;-65
2023/07/01 12:24:55;;;;;;;1.15;0.60;;;21.50;99.90;;;;;;5033734;28;20042;-66
2023/07/01 12:27:22;;;;;;;2.67;0.77;;;21.70;99.90;;;;;;5030509;28;20029;-65
2023/07/01 12:29:47;;;;;;;4.05;0.70;;;21.90;99.90;;;;;;5031892;28;20521;-65
2023/07/01 12:32:13;;;;;;;4.43;0.80;;;22.10;99.90;;;;;;5033072;28;20112;-65
2023/07/01 12:34:39;;;;;;;3.70;1.20;;;22.20;99.90;;;;;;5032454;28;20037;-66
2023/07/01 12:37:07;;;;;;;1.25;0.57;;;22.20;99.90;;;;;;5026647;28;20026;-65
2023/07/01 12:39:34;;;;;;;2.60;0.70;;;22.10;99.90;;;;;;5023583;28;20536;-66
2023/07/01 12:42:00;;;;;;;0.52;0.40;;;22.20;99.90;;;;;;5025826;28;20026;-66
2023/07/01 12:44:26;;;;;;;2.30;0.80;;;22.40;99.90;;;;;;5030928;28;20033;-66
2023/07/01 12:46:52;;;;;;;0.75;0.50;;;22.10;99.90;;;;;;5028303;28;20060;-66
2023/07/01 12:49:18;;;;;;;1.95;1.08;;;22.10;99.90;;;;;;5030936;28;20120;-65
2023/07/01 12:51:44;;;;;;;2.67;0.70;;;22.10;99.90;;;;;;5032713;28;20048;-65
2023/07/01 12:54:12;;;;;;;0.95;0.60;;;22.00;99.90;;;;;;5031799;28;20033;-65